sensor_id;sensor_type;location;lat;lon;timestamp;P1;durP1;ratioP1;P2;durP2;ratioP2
48993;SDS011;34804;49.214;12.276;2022-11-20T00:00:54;34.60;;;17.20;;
48993;SDS011;34804;49.214;12.276;2022-11-20T00:03:21;33.42;;;16.80;;
48993;SDS011;34804;49.214;12.276;2022-11-20T00:05:48;29.88;;;15.80;;
48993;SDS011;34804;49.214;12.276;2022-11-20T00:08:15;31.52;;;16.05;;
48993;SDS011;34804;49.214;12.276;2022-11-20T00:10:42;33.35;;;16.45;;
48993;SDS011;34804;49.214;12.276;2022-11-20T00:13:09;31.70;;;16.33;;
48993;SDS011;34804;49.214;12.276;2022-11-20T00:15:36;32.78;;;15.88;;
48993;SDS011;34804;49.214;12.276;2022-11-20T00:18:04;33.22;;;15.80;;
48993;SDS011;34804;49.214;12.276;2022-11-20T00:20:31;30.55;;;15.25;;
48993;SDS011;34804;49.214;12.276;2022-11-20T00:22:58;33.72;;;15.75;;
48993;SDS011;34804;49.214;12.276;2022-11-20T00:25:25;30.92;;;15.13;;
48993;SDS011;34804;49.214;12.276;2022-11-20T00:27:56;34.03;;;16.60;;
48993;SDS011;34804;49.214;12.276;2022-11-20T00:30:22;33.47;;;17.15;;
48993;SDS011;34804;49.214;12.276;2022-11-20T00:32:49;36.08;;;15.77;;
48993;SDS011;34804;49.214;12.276;2022-11-20T00:35:16;36.45;;;17.25;;
48993;SDS011;34804;49.214;12.276;2022-11-20T00:37:43;35.10;;;16.95;;
48993;SDS011;34804;49.214;12.276;2022-11-20T00:40:10;36.75;;;18.50;;
48993;SDS011;34804;49.214;12.276;2022-11-20T00:42:37;32.20;;;16.85;;
48993;SDS011;34804;49.214;12.276;2022-11-20T00:45:04;35.10;;;17.73;;
48993;SDS011;34804;49.214;12.276;2022-11-20T00:47:31;36.88;;;17.95;;
48993;SDS011;34804;49.214;12.276;2022-11-20T00:49:58;32.97;;;15.75;;
48993;SDS011;34804;49.214;12.276;2022-11-20T00:52:25;35.30;;;19.00;;
48993;SDS011;34804;49.214;12.276;2022-11-20T00:54:52;32.25;;;16.80;;
48993;SDS011;34804;49.214;12.276;2022-11-20T00:57:19;31.20;;;15.55;;
48993;SDS011;34804;49.214;12.276;2022-11-20T00:59:45;34.40;;;17.83;;
48993;SDS011;34804;49.214;12.276;2022-11-20T01:02:12;31.50;;;15.95;;
48993;SDS011;34804;49.214;12.276;2022-11-20T01:04:39;31.85;;;16.13;;
48993;SDS011;34804;49.214;12.276;2022-11-20T01:07:05;32.40;;;15.52;;
48993;SDS011;34804;49.214;12.276;2022-11-20T01:09:32;31.63;;;16.40;;
48993;SDS011;34804;49.214;12.276;2022-11-20T01:11:59;30.10;;;15.40;;
48993;SDS011;34804;49.214;12.276;2022-11-20T01:14:26;32.78;;;16.17;;
48993;SDS011;34804;49.214;12.276;2022-11-20T01:16:53;32.80;;;16.58;;
48993;SDS011;34804;49.214;12.276;2022-11-20T01:19:21;35.10;;;17.83;;
48993;SDS011;34804;49.214;12.276;2022-11-20T01:21:51;33.47;;;17.45;;
48993;SDS011;34804;49.214;12.276;2022-11-20T01:24:19;35.17;;;17.08;;
48993;SDS011;34804;49.214;12.276;2022-11-20T01:26:48;33.67;;;16.80;;
48993;SDS011;34804;49.214;12.276;2022-11-20T01:29:17;33.08;;;17.02;;
48993;SDS011;34804;49.214;12.276;2022-11-20T01:31:49;35.78;;;17.67;;
48993;SDS011;34804;49.214;12.276;2022-11-20T01:34:18;35.70;;;17.65;;
48993;SDS011;34804;49.214;12.276;2022-11-20T01:36:46;37.03;;;18.15;;
48993;SDS011;34804;49.214;12.276;2022-11-20T01:39:15;34.90;;;16.73;;
48993;SDS011;34804;49.214;12.276;2022-11-20T01:47:36;39.97;;;18.13;;
48993;SDS011;34804;49.214;12.276;2022-11-20T01:50:17;42.08;;;19.98;;
48993;SDS011;34804;49.214;12.276;2022-11-20T01:52:59;42.65;;;20.17;;
48993;SDS011;34804;49.214;12.276;2022-11-20T01:55:31;39.03;;;20.08;;
48993;SDS011;34804;49.214;12.276;2022-11-20T01:58:02;43.88;;;20.20;;
48993;SDS011;34804;49.214;12.276;2022-11-20T02:00:30;41.65;;;19.90;;
48993;SDS011;34804;49.214;12.276;2022-11-20T02:02:58;46.50;;;21.88;;
48993;SDS011;34804;49.214;12.276;2022-11-20T02:05:42;43.65;;;21.63;;
48993;SDS011;34804;49.214;12.276;2022-11-20T02:08:32;49.80;;;21.70;;
48993;SDS011;34804;49.214;12.276;2022-11-20T02:11:00;46.38;;;21.58;;
48993;SDS011;34804;49.214;12.276;2022-11-20T02:13:27;43.03;;;20.40;;
48993;SDS011;34804;49.214;12.276;2022-11-20T02:16:17;45.08;;;19.40;;
48993;SDS011;34804;49.214;12.276;2022-11-20T02:18:53;48.17;;;21.80;;
48993;SDS011;34804;49.214;12.276;2022-11-20T02:21:40;41.05;;;20.75;;
48993;SDS011;34804;49.214;12.276;2022-11-20T02:24:15;43.67;;;21.95;;
48993;SDS011;34804;49.214;12.276;2022-11-20T02:26:47;45.15;;;20.80;;
48993;SDS011;34804;49.214;12.276;2022-11-20T02:29:27;44.47;;;20.05;;
48993;SDS011;34804;49.214;12.276;2022-11-20T02:32:00;47.67;;;20.73;;
48993;SDS011;34804;49.214;12.276;2022-11-20T02:34:28;46.03;;;21.23;;
48993;SDS011;34804;49.214;12.276;2022-11-20T02:36:55;43.80;;;20.38;;
48993;SDS011;34804;49.214;12.276;2022-11-20T02:39:24;45.28;;;21.27;;
48993;SDS011;34804;49.214;12.276;2022-11-20T02:41:54;45.70;;;21.48;;
48993;SDS011;34804;49.214;12.276;2022-11-20T02:44:22;46.95;;;21.80;;
48993;SDS011;34804;49.214;12.276;2022-11-20T02:46:49;47.25;;;20.77;;
48993;SDS011;34804;49.214;12.276;2022-11-20T02:49:16;43.40;;;20.20;;
48993;SDS011;34804;49.214;12.276;2022-11-20T02:51:43;43.13;;;19.60;;
48993;SDS011;34804;49.214;12.276;2022-11-20T02:54:10;40.65;;;20.35;;
48993;SDS011;34804;49.214;12.276;2022-11-20T02:56:39;43.47;;;21.10;;
48993;SDS011;34804;49.214;12.276;2022-11-20T02:59:06;45.30;;;20.55;;
48993;SDS011;34804;49.214;12.276;2022-11-20T03:01:33;44.83;;;20.58;;
48993;SDS011;34804;49.214;12.276;2022-11-20T03:04:01;49.13;;;22.08;;
48993;SDS011;34804;49.214;12.276;2022-11-20T03:06:28;54.08;;;22.55;;
48993;SDS011;34804;49.214;12.276;2022-11-20T03:08:55;51.20;;;21.95;;
48993;SDS011;34804;49.214;12.276;2022-11-20T03:11:23;41.95;;;19.90;;
48993;SDS011;34804;49.214;12.276;2022-11-20T03:13:50;44.00;;;21.60;;
48993;SDS011;34804;49.214;12.276;2022-11-20T03:16:19;43.45;;;20.77;;
48993;SDS011;34804;49.214;12.276;2022-11-20T03:18:48;45.13;;;20.60;;
48993;SDS011;34804;49.214;12.276;2022-11-20T03:21:15;42.47;;;19.63;;
48993;SDS011;34804;49.214;12.276;2022-11-20T03:23:42;44.90;;;20.95;;
48993;SDS011;34804;49.214;12.276;2022-11-20T03:26:14;46.13;;;20.55;;
48993;SDS011;34804;49.214;12.276;2022-11-20T03:28:49;39.30;;;19.83;;
48993;SDS011;34804;49.214;12.276;2022-11-20T03:31:17;45.20;;;21.65;;
48993;SDS011;34804;49.214;12.276;2022-11-20T03:33:46;43.65;;;20.98;;
48993;SDS011;34804;49.214;12.276;2022-11-20T03:36:14;42.85;;;20.48;;
48993;SDS011;34804;49.214;12.276;2022-11-20T03:38:42;41.70;;;18.95;;
48993;SDS011;34804;49.214;12.276;2022-11-20T03:41:10;45.40;;;20.33;;
48993;SDS011;34804;49.214;12.276;2022-11-20T03:43:38;42.28;;;20.80;;
48993;SDS011;34804;49.214;12.276;2022-11-20T03:46:05;43.65;;;19.92;;
48993;SDS011;34804;49.214;12.276;2022-11-20T03:48:33;44.47;;;19.80;;
48993;SDS011;34804;49.214;12.276;2022-11-20T03:51:09;41.13;;;19.15;;
48993;SDS011;34804;49.214;12.276;2022-11-20T03:53:42;41.38;;;19.80;;
48993;SDS011;34804;49.214;12.276;2022-11-20T03:56:10;44.67;;;19.75;;
48993;SDS011;34804;49.214;12.276;2022-11-20T03:58:39;43.45;;;20.33;;
48993;SDS011;34804;49.214;12.276;2022-11-20T04:01:08;49.83;;;21.08;;
48993;SDS011;34804;49.214;12.276;2022-11-20T04:03:38;44.13;;;20.15;;
48993;SDS011;34804;49.214;12.276;2022-11-20T04:08:41;45.10;;;20.63;;
48993;SDS011;34804;49.214;12.276;2022-11-20T04:13:35;47.30;;;19.73;;
48993;SDS011;34804;49.214;12.276;2022-11-20T04:16:02;46.72;;;21.10;;
48993;SDS011;34804;49.214;12.276;2022-11-20T04:18:29;45.33;;;20.15;;
48993;SDS011;34804;49.214;12.276;2022-11-20T04:20:57;49.95;;;22.52;;
48993;SDS011;34804;49.214;12.276;2022-11-20T04:23:24;45.47;;;20.38;;
48993;SDS011;34804;49.214;12.276;2022-11-20T04:25:54;44.75;;;20.25;;
48993;SDS011;34804;49.214;12.276;2022-11-20T04:28:21;48.35;;;20.67;;
48993;SDS011;34804;49.214;12.276;2022-11-20T04:30:47;46.50;;;21.25;;
48993;SDS011;34804;49.214;12.276;2022-11-20T04:33:14;44.22;;;21.17;;
48993;SDS011;34804;49.214;12.276;2022-11-20T04:35:41;48.70;;;21.73;;
48993;SDS011;34804;49.214;12.276;2022-11-20T04:38:08;43.00;;;19.58;;
48993;SDS011;34804;49.214;12.276;2022-11-20T04:40:35;46.70;;;21.30;;
48993;SDS011;34804;49.214;12.276;2022-11-20T04:43:02;42.83;;;19.70;;
48993;SDS011;34804;49.214;12.276;2022-11-20T04:45:28;44.42;;;20.80;;
48993;SDS011;34804;49.214;12.276;2022-11-20T04:47:55;46.58;;;19.83;;
48993;SDS011;34804;49.214;12.276;2022-11-20T04:50:22;42.42;;;18.75;;
48993;SDS011;34804;49.214;12.276;2022-11-20T04:52:49;47.50;;;20.83;;
48993;SDS011;34804;49.214;12.276;2022-11-20T04:55:15;42.58;;;20.17;;
48993;SDS011;34804;49.214;12.276;2022-11-20T04:57:42;42.85;;;20.27;;
48993;SDS011;34804;49.214;12.276;2022-11-20T05:00:09;45.58;;;19.55;;
48993;SDS011;34804;49.214;12.276;2022-11-20T05:02:36;43.75;;;20.08;;
48993;SDS011;34804;49.214;12.276;2022-11-20T05:05:03;42.75;;;19.60;;
48993;SDS011;34804;49.214;12.276;2022-11-20T05:07:30;43.78;;;20.13;;
48993;SDS011;34804;49.214;12.276;2022-11-20T05:09:57;42.92;;;20.30;;
48993;SDS011;34804;49.214;12.276;2022-11-20T05:12:23;44.03;;;19.60;;
48993;SDS011;34804;49.214;12.276;2022-11-20T05:14:50;41.95;;;19.50;;
48993;SDS011;34804;49.214;12.276;2022-11-20T05:17:17;43.95;;;20.13;;
48993;SDS011;34804;49.214;12.276;2022-11-20T05:19:44;51.58;;;22.02;;
48993;SDS011;34804;49.214;12.276;2022-11-20T05:22:17;46.95;;;22.02;;
48993;SDS011;34804;49.214;12.276;2022-11-20T05:24:43;48.30;;;21.15;;
48993;SDS011;34804;49.214;12.276;2022-11-20T05:27:10;48.08;;;21.05;;
48993;SDS011;34804;49.214;12.276;2022-11-20T05:29:37;47.97;;;21.75;;
48993;SDS011;34804;49.214;12.276;2022-11-20T05:32:04;49.20;;;21.48;;
48993;SDS011;34804;49.214;12.276;2022-11-20T05:34:31;50.25;;;22.48;;
48993;SDS011;34804;49.214;12.276;2022-11-20T05:36:58;52.25;;;23.35;;
48993;SDS011;34804;49.214;12.276;2022-11-20T05:39:25;55.70;;;22.90;;
48993;SDS011;34804;49.214;12.276;2022-11-20T05:41:52;49.40;;;22.15;;
48993;SDS011;34804;49.214;12.276;2022-11-20T05:44:39;48.70;;;22.50;;
48993;SDS011;34804;49.214;12.276;2022-11-20T05:47:05;45.45;;;20.35;;
48993;SDS011;34804;49.214;12.276;2022-11-20T05:49:32;51.40;;;22.02;;
48993;SDS011;34804;49.214;12.276;2022-11-20T05:51:59;44.38;;;19.67;;
48993;SDS011;34804;49.214;12.276;2022-11-20T05:54:26;48.45;;;20.63;;
48993;SDS011;34804;49.214;12.276;2022-11-20T05:56:52;45.83;;;20.58;;
48993;SDS011;34804;49.214;12.276;2022-11-20T05:59:19;46.10;;;20.73;;
48993;SDS011;34804;49.214;12.276;2022-11-20T06:01:46;43.60;;;20.80;;
48993;SDS011;34804;49.214;12.276;2022-11-20T06:04:13;45.30;;;20.20;;
48993;SDS011;34804;49.214;12.276;2022-11-20T06:06:40;41.88;;;19.38;;
48993;SDS011;34804;49.214;12.276;2022-11-20T06:09:07;43.13;;;19.02;;
48993;SDS011;34804;49.214;12.276;2022-11-20T06:11:33;41.70;;;19.38;;
48993;SDS011;34804;49.214;12.276;2022-11-20T06:14:00;43.83;;;20.52;;
48993;SDS011;34804;49.214;12.276;2022-11-20T06:16:27;45.67;;;19.52;;
48993;SDS011;34804;49.214;12.276;2022-11-20T06:18:54;45.75;;;20.13;;
48993;SDS011;34804;49.214;12.276;2022-11-20T06:21:21;46.22;;;19.85;;
48993;SDS011;34804;49.214;12.276;2022-11-20T06:23:48;42.30;;;19.13;;
48993;SDS011;34804;49.214;12.276;2022-11-20T06:26:17;43.92;;;19.67;;
48993;SDS011;34804;49.214;12.276;2022-11-20T06:28:46;46.00;;;18.92;;
48993;SDS011;34804;49.214;12.276;2022-11-20T06:31:13;43.65;;;20.27;;
48993;SDS011;34804;49.214;12.276;2022-11-20T06:33:42;42.42;;;18.35;;
48993;SDS011;34804;49.214;12.276;2022-11-20T06:36:10;43.88;;;18.58;;
48993;SDS011;34804;49.214;12.276;2022-11-20T06:38:39;47.47;;;19.45;;
48993;SDS011;34804;49.214;12.276;2022-11-20T06:41:07;45.70;;;19.48;;
48993;SDS011;34804;49.214;12.276;2022-11-20T06:43:36;43.75;;;18.70;;
48993;SDS011;34804;49.214;12.276;2022-11-20T06:46:03;43.38;;;18.80;;
48993;SDS011;34804;49.214;12.276;2022-11-20T06:48:30;44.67;;;19.63;;
48993;SDS011;34804;49.214;12.276;2022-11-20T06:50:57;44.50;;;20.48;;
48993;SDS011;34804;49.214;12.276;2022-11-20T06:53:24;50.47;;;22.08;;
48993;SDS011;34804;49.214;12.276;2022-11-20T06:55:51;54.25;;;22.25;;
48993;SDS011;34804;49.214;12.276;2022-11-20T06:58:21;46.42;;;20.55;;
48993;SDS011;34804;49.214;12.276;2022-11-20T07:00:48;39.78;;;19.17;;
48993;SDS011;34804;49.214;12.276;2022-11-20T07:03:14;45.88;;;20.67;;
48993;SDS011;34804;49.214;12.276;2022-11-20T07:05:41;43.92;;;21.42;;
48993;SDS011;34804;49.214;12.276;2022-11-20T07:08:08;45.33;;;19.63;;
48993;SDS011;34804;49.214;12.276;2022-11-20T07:10:35;46.20;;;20.30;;
48993;SDS011;34804;49.214;12.276;2022-11-20T07:13:02;43.00;;;19.83;;
48993;SDS011;34804;49.214;12.276;2022-11-20T07:15:29;43.50;;;20.10;;
48993;SDS011;34804;49.214;12.276;2022-11-20T07:17:58;42.58;;;18.35;;
48993;SDS011;34804;49.214;12.276;2022-11-20T07:20:25;39.40;;;19.33;;
48993;SDS011;34804;49.214;12.276;2022-11-20T07:22:53;46.38;;;20.33;;
48993;SDS011;34804;49.214;12.276;2022-11-20T07:25:24;47.50;;;20.13;;
48993;SDS011;34804;49.214;12.276;2022-11-20T07:27:52;49.03;;;20.52;;
48993;SDS011;34804;49.214;12.276;2022-11-20T07:30:22;80.72;;;32.42;;
48993;SDS011;34804;49.214;12.276;2022-11-20T07:32:52;58.15;;;25.08;;
48993;SDS011;34804;49.214;12.276;2022-11-20T07:35:19;54.42;;;22.38;;
48993;SDS011;34804;49.214;12.276;2022-11-20T07:37:47;47.47;;;19.58;;
48993;SDS011;34804;49.214;12.276;2022-11-20T07:40:15;45.92;;;20.55;;
48993;SDS011;34804;49.214;12.276;2022-11-20T07:45:19;50.40;;;21.42;;
48993;SDS011;34804;49.214;12.276;2022-11-20T07:47:47;47.15;;;19.95;;
48993;SDS011;34804;49.214;12.276;2022-11-20T07:50:14;47.85;;;19.20;;
48993;SDS011;34804;49.214;12.276;2022-11-20T07:52:41;52.05;;;24.15;;
48993;SDS011;34804;49.214;12.276;2022-11-20T07:55:09;43.08;;;20.35;;
48993;SDS011;34804;49.214;12.276;2022-11-20T07:57:36;51.40;;;24.48;;
48993;SDS011;34804;49.214;12.276;2022-11-20T08:00:04;56.40;;;24.70;;
48993;SDS011;34804;49.214;12.276;2022-11-20T08:02:33;47.08;;;21.80;;
48993;SDS011;34804;49.214;12.276;2022-11-20T08:05:00;43.05;;;19.13;;
48993;SDS011;34804;49.214;12.276;2022-11-20T08:07:27;41.35;;;17.65;;
48993;SDS011;34804;49.214;12.276;2022-11-20T08:09:54;40.83;;;17.17;;
48993;SDS011;34804;49.214;12.276;2022-11-20T08:12:21;44.65;;;19.25;;
48993;SDS011;34804;49.214;12.276;2022-11-20T08:15:07;44.47;;;18.20;;
48993;SDS011;34804;49.214;12.276;2022-11-20T08:17:38;54.65;;;23.02;;
48993;SDS011;34804;49.214;12.276;2022-11-20T08:20:05;56.28;;;25.58;;
48993;SDS011;34804;49.214;12.276;2022-11-20T08:22:32;59.30;;;26.27;;
48993;SDS011;34804;49.214;12.276;2022-11-20T08:24:59;54.78;;;24.92;;
48993;SDS011;34804;49.214;12.276;2022-11-20T08:27:26;53.38;;;25.00;;
48993;SDS011;34804;49.214;12.276;2022-11-20T08:29:52;50.53;;;23.38;;
48993;SDS011;34804;49.214;12.276;2022-11-20T08:32:19;57.58;;;24.17;;
48993;SDS011;34804;49.214;12.276;2022-11-20T08:34:46;49.78;;;23.45;;
48993;SDS011;34804;49.214;12.276;2022-11-20T08:37:13;53.03;;;24.25;;
48993;SDS011;34804;49.214;12.276;2022-11-20T08:39:40;50.38;;;22.98;;
48993;SDS011;34804;49.214;12.276;2022-11-20T08:42:07;47.20;;;23.25;;
48993;SDS011;34804;49.214;12.276;2022-11-20T08:44:34;53.05;;;23.83;;
48993;SDS011;34804;49.214;12.276;2022-11-20T08:47:01;46.53;;;22.40;;
48993;SDS011;34804;49.214;12.276;2022-11-20T08:49:28;43.28;;;20.77;;
48993;SDS011;34804;49.214;12.276;2022-11-20T08:51:54;45.90;;;21.30;;
48993;SDS011;34804;49.214;12.276;2022-11-20T08:54:21;45.30;;;21.70;;
48993;SDS011;34804;49.214;12.276;2022-11-20T08:56:48;48.65;;;22.38;;
48993;SDS011;34804;49.214;12.276;2022-11-20T08:59:15;51.20;;;22.55;;
48993;SDS011;34804;49.214;12.276;2022-11-20T09:02:02;50.85;;;23.88;;
48993;SDS011;34804;49.214;12.276;2022-11-20T09:04:29;45.45;;;22.20;;
48993;SDS011;34804;49.214;12.276;2022-11-20T09:06:56;42.58;;;22.05;;
48993;SDS011;34804;49.214;12.276;2022-11-20T09:09:23;48.17;;;21.30;;
48993;SDS011;34804;49.214;12.276;2022-11-20T09:11:50;46.05;;;21.63;;
48993;SDS011;34804;49.214;12.276;2022-11-20T09:14:17;49.38;;;21.98;;
48993;SDS011;34804;49.214;12.276;2022-11-20T09:16:44;48.15;;;21.85;;
48993;SDS011;34804;49.214;12.276;2022-11-20T09:19:12;46.28;;;23.67;;
48993;SDS011;34804;49.214;12.276;2022-11-20T09:21:59;44.65;;;21.25;;
48993;SDS011;34804;49.214;12.276;2022-11-20T09:24:26;45.10;;;21.73;;
48993;SDS011;34804;49.214;12.276;2022-11-20T09:26:54;48.88;;;22.95;;
48993;SDS011;34804;49.214;12.276;2022-11-20T09:29:21;50.42;;;22.13;;
48993;SDS011;34804;49.214;12.276;2022-11-20T09:31:48;48.28;;;23.25;;
48993;SDS011;34804;49.214;12.276;2022-11-20T09:34:15;43.10;;;21.83;;
48993;SDS011;34804;49.214;12.276;2022-11-20T09:36:42;46.85;;;22.00;;
48993;SDS011;34804;49.214;12.276;2022-11-20T09:39:09;42.65;;;22.02;;
48993;SDS011;34804;49.214;12.276;2022-11-20T09:47:08;41.83;;;17.63;;
48993;SDS011;34804;49.214;12.276;2022-11-20T09:52:21;39.40;;;18.00;;
48993;SDS011;34804;49.214;12.276;2022-11-20T09:55:04;41.33;;;19.15;;
48993;SDS011;34804;49.214;12.276;2022-11-20T09:57:37;45.83;;;21.67;;
48993;SDS011;34804;49.214;12.276;2022-11-20T10:00:09;37.78;;;19.23;;
48993;SDS011;34804;49.214;12.276;2022-11-20T10:08:14;38.17;;;19.33;;
48993;SDS011;34804;49.214;12.276;2022-11-20T10:10:47;38.03;;;18.08;;
48993;SDS011;34804;49.214;12.276;2022-11-20T10:18:18;29.35;;;16.15;;
48993;SDS011;34804;49.214;12.276;2022-11-20T10:26:52;28.08;;;14.85;;
48993;SDS011;34804;49.214;12.276;2022-11-20T10:29:19;25.52;;;13.80;;
48993;SDS011;34804;49.214;12.276;2022-11-20T10:31:55;23.27;;;11.48;;
48993;SDS011;34804;49.214;12.276;2022-11-20T10:36:55;22.83;;;10.65;;
48993;SDS011;34804;49.214;12.276;2022-11-20T10:39:38;20.25;;;10.63;;
48993;SDS011;34804;49.214;12.276;2022-11-20T10:42:10;20.33;;;9.95;;
48993;SDS011;34804;49.214;12.276;2022-11-20T10:44:42;18.10;;;10.25;;
48993;SDS011;34804;49.214;12.276;2022-11-20T10:47:31;20.00;;;11.13;;
48993;SDS011;34804;49.214;12.276;2022-11-20T10:50:01;15.68;;;9.45;;
48993;SDS011;34804;49.214;12.276;2022-11-20T10:52:44;13.85;;;8.45;;
48993;SDS011;34804;49.214;12.276;2022-11-20T10:56:14;12.13;;;7.32;;
48993;SDS011;34804;49.214;12.276;2022-11-20T11:00:50;12.30;;;6.60;;
48993;SDS011;34804;49.214;12.276;2022-11-20T11:03:20;12.23;;;6.35;;
48993;SDS011;34804;49.214;12.276;2022-11-20T11:06:01;10.40;;;5.75;;
48993;SDS011;34804;49.214;12.276;2022-11-20T11:08:42;11.50;;;5.68;;
48993;SDS011;34804;49.214;12.276;2022-11-20T11:11:17;10.95;;;6.20;;
48993;SDS011;34804;49.214;12.276;2022-11-20T11:13:48;10.13;;;5.38;;
48993;SDS011;34804;49.214;12.276;2022-11-20T11:16:33;9.15;;;5.25;;
48993;SDS011;34804;49.214;12.276;2022-11-20T11:19:07;9.50;;;5.57;;
48993;SDS011;34804;49.214;12.276;2022-11-20T11:21:46;9.05;;;5.65;;
48993;SDS011;34804;49.214;12.276;2022-11-20T11:24:22;10.02;;;5.30;;
48993;SDS011;34804;49.214;12.276;2022-11-20T11:27:12;9.15;;;4.85;;
48993;SDS011;34804;49.214;12.276;2022-11-20T11:29:44;8.90;;;4.95;;
48993;SDS011;34804;49.214;12.276;2022-11-20T11:32:12;8.35;;;4.85;;
48993;SDS011;34804;49.214;12.276;2022-11-20T11:34:59;10.40;;;5.55;;
48993;SDS011;34804;49.214;12.276;2022-11-20T11:37:28;9.50;;;5.47;;
48993;SDS011;34804;49.214;12.276;2022-11-20T11:40:02;9.60;;;5.03;;
48993;SDS011;34804;49.214;12.276;2022-11-20T11:42:56;9.63;;;5.28;;
48993;SDS011;34804;49.214;12.276;2022-11-20T11:45:26;8.63;;;5.03;;
48993;SDS011;34804;49.214;12.276;2022-11-20T11:47:54;10.30;;;5.70;;
48993;SDS011;34804;49.214;12.276;2022-11-20T11:50:25;9.30;;;5.65;;
48993;SDS011;34804;49.214;12.276;2022-11-20T11:55:37;14.40;;;5.43;;
48993;SDS011;34804;49.214;12.276;2022-11-20T12:00:46;9.85;;;4.75;;
48993;SDS011;34804;49.214;12.276;2022-11-20T12:03:19;10.13;;;5.55;;
48993;SDS011;34804;49.214;12.276;2022-11-20T12:06:00;8.77;;;4.72;;
48993;SDS011;34804;49.214;12.276;2022-11-20T12:08:48;8.18;;;4.57;;
48993;SDS011;34804;49.214;12.276;2022-11-20T12:14:11;8.95;;;4.53;;
48993;SDS011;34804;49.214;12.276;2022-11-20T12:16:52;9.68;;;5.00;;
48993;SDS011;34804;49.214;12.276;2022-11-20T12:19:21;8.65;;;4.80;;
48993;SDS011;34804;49.214;12.276;2022-11-20T12:22:06;7.75;;;4.82;;
48993;SDS011;34804;49.214;12.276;2022-11-20T12:25:19;8.50;;;4.40;;
48993;SDS011;34804;49.214;12.276;2022-11-20T12:28:06;7.53;;;4.40;;
48993;SDS011;34804;49.214;12.276;2022-11-20T12:34:21;7.22;;;3.90;;
48993;SDS011;34804;49.214;12.276;2022-11-20T12:37:10;7.10;;;4.30;;
48993;SDS011;34804;49.214;12.276;2022-11-20T12:40:01;8.00;;;4.30;;
48993;SDS011;34804;49.214;12.276;2022-11-20T12:43:01;7.95;;;4.25;;
48993;SDS011;34804;49.214;12.276;2022-11-20T12:48:46;7.00;;;4.07;;
48993;SDS011;34804;49.214;12.276;2022-11-20T12:51:28;6.10;;;3.67;;
48993;SDS011;34804;49.214;12.276;2022-11-20T12:56:55;7.22;;;3.78;;
48993;SDS011;34804;49.214;12.276;2022-11-20T13:05:19;7.53;;;4.00;;
48993;SDS011;34804;49.214;12.276;2022-11-20T13:07:53;7.40;;;4.18;;
48993;SDS011;34804;49.214;12.276;2022-11-20T13:10:31;7.93;;;4.28;;
48993;SDS011;34804;49.214;12.276;2022-11-20T13:13:10;6.38;;;3.78;;
48993;SDS011;34804;49.214;12.276;2022-11-20T13:18:40;7.72;;;4.43;;
48993;SDS011;34804;49.214;12.276;2022-11-20T13:21:15;5.85;;;2.55;;
48993;SDS011;34804;49.214;12.276;2022-11-20T13:23:44;4.40;;;2.35;;
48993;SDS011;34804;49.214;12.276;2022-11-20T13:26:20;3.33;;;1.30;;
48993;SDS011;34804;49.214;12.276;2022-11-20T13:29:03;3.72;;;1.60;;
48993;SDS011;34804;49.214;12.276;2022-11-20T13:31:38;4.03;;;1.77;;
48993;SDS011;34804;49.214;12.276;2022-11-20T13:34:10;4.30;;;1.90;;
48993;SDS011;34804;49.214;12.276;2022-11-20T13:37:01;3.15;;;1.38;;
48993;SDS011;34804;49.214;12.276;2022-11-20T13:39:35;3.90;;;1.35;;
48993;SDS011;34804;49.214;12.276;2022-11-20T13:42:19;2.67;;;1.15;;
48993;SDS011;34804;49.214;12.276;2022-11-20T13:44:53;2.65;;;1.13;;
48993;SDS011;34804;49.214;12.276;2022-11-20T13:47:25;2.65;;;1.30;;
48993;SDS011;34804;49.214;12.276;2022-11-20T13:49:53;3.95;;;1.10;;
48993;SDS011;34804;49.214;12.276;2022-11-20T13:55:05;3.10;;;1.20;;
48993;SDS011;34804;49.214;12.276;2022-11-20T14:00:28;2.90;;;1.17;;
48993;SDS011;34804;49.214;12.276;2022-11-20T14:05:39;2.70;;;1.13;;
48993;SDS011;34804;49.214;12.276;2022-11-20T14:08:17;2.47;;;1.10;;
48993;SDS011;34804;49.214;12.276;2022-11-20T14:11:02;3.25;;;1.20;;
48993;SDS011;34804;49.214;12.276;2022-11-20T14:13:38;2.97;;;1.23;;
48993;SDS011;34804;49.214;12.276;2022-11-20T14:16:05;4.20;;;1.23;;
48993;SDS011;34804;49.214;12.276;2022-11-20T14:18:32;3.80;;;1.30;;
48993;SDS011;34804;49.214;12.276;2022-11-20T14:21:02;2.25;;;1.00;;
48993;SDS011;34804;49.214;12.276;2022-11-20T14:23:29;2.78;;;1.20;;
48993;SDS011;34804;49.214;12.276;2022-11-20T14:25:56;2.22;;;1.00;;
48993;SDS011;34804;49.214;12.276;2022-11-20T14:28:27;3.22;;;1.40;;
48993;SDS011;34804;49.214;12.276;2022-11-20T14:30:56;2.92;;;1.40;;
48993;SDS011;34804;49.214;12.276;2022-11-20T14:33:25;4.38;;;1.70;;
48993;SDS011;34804;49.214;12.276;2022-11-20T14:35:56;2.92;;;1.38;;
48993;SDS011;34804;49.214;12.276;2022-11-20T14:38:25;3.45;;;1.60;;
48993;SDS011;34804;49.214;12.276;2022-11-20T14:40:54;3.80;;;1.77;;
48993;SDS011;34804;49.214;12.276;2022-11-20T14:43:31;3.28;;;1.48;;
48993;SDS011;34804;49.214;12.276;2022-11-20T14:46:00;2.88;;;1.35;;
48993;SDS011;34804;49.214;12.276;2022-11-20T14:48:41;3.17;;;1.35;;
48993;SDS011;34804;49.214;12.276;2022-11-20T14:51:28;3.63;;;1.52;;
48993;SDS011;34804;49.214;12.276;2022-11-20T14:54:10;3.45;;;1.48;;
48993;SDS011;34804;49.214;12.276;2022-11-20T14:56:40;3.92;;;1.40;;
48993;SDS011;34804;49.214;12.276;2022-11-20T14:59:07;3.03;;;1.45;;
48993;SDS011;34804;49.214;12.276;2022-11-20T15:01:35;3.20;;;1.40;;
48993;SDS011;34804;49.214;12.276;2022-11-20T15:06:33;4.80;;;1.70;;
48993;SDS011;34804;49.214;12.276;2022-11-20T15:09:02;3.40;;;1.65;;
48993;SDS011;34804;49.214;12.276;2022-11-20T15:11:33;3.33;;;1.50;;
48993;SDS011;34804;49.214;12.276;2022-11-20T15:14:02;3.65;;;1.63;;
48993;SDS011;34804;49.214;12.276;2022-11-20T15:16:32;4.30;;;1.80;;
48993;SDS011;34804;49.214;12.276;2022-11-20T15:18:59;4.60;;;2.03;;
48993;SDS011;34804;49.214;12.276;2022-11-20T15:21:27;3.67;;;1.70;;
48993;SDS011;34804;49.214;12.276;2022-11-20T15:23:57;5.05;;;2.10;;
48993;SDS011;34804;49.214;12.276;2022-11-20T15:26:26;4.40;;;2.00;;
48993;SDS011;34804;49.214;12.276;2022-11-20T15:28:54;4.32;;;2.45;;
48993;SDS011;34804;49.214;12.276;2022-11-20T15:31:21;6.22;;;2.50;;
48993;SDS011;34804;49.214;12.276;2022-11-20T15:33:49;5.97;;;2.35;;
48993;SDS011;34804;49.214;12.276;2022-11-20T15:36:16;5.03;;;2.63;;
48993;SDS011;34804;49.214;12.276;2022-11-20T15:38:43;5.45;;;2.20;;
48993;SDS011;34804;49.214;12.276;2022-11-20T15:41:10;4.47;;;1.98;;
48993;SDS011;34804;49.214;12.276;2022-11-20T15:43:37;4.82;;;2.30;;
48993;SDS011;34804;49.214;12.276;2022-11-20T15:46:05;4.50;;;2.10;;
48993;SDS011;34804;49.214;12.276;2022-11-20T15:48:36;4.43;;;2.10;;
48993;SDS011;34804;49.214;12.276;2022-11-20T15:53:53;7.85;;;2.47;;
48993;SDS011;34804;49.214;12.276;2022-11-20T15:56:21;4.43;;;2.05;;
48993;SDS011;34804;49.214;12.276;2022-11-20T15:58:48;4.28;;;2.10;;